Time;durP1;ratioP1;P1;durP2;ratioP2;P2;SDS_P1;SDS_P2;PMS_P1;PMS_P2;Temp;Humidity;BMP_temperature;BMP_pressure;BME280_temperature;BME280_humidity;BME280_pressure;Samples;Min_cycle;Max_cycle;Signal;HPM_P1;HPM_P2
2022/04/18 00:02:26;;;;;;;5.40;2.30;;;2.70;99.90;;;;;;4895987;29;20097;-48
2022/04/18 00:04:53;;;;;;;4.05;2.30;;;2.70;99.90;;;;;;4896106;29;20051;-50
2022/04/18 00:07:20;;;;;;;5.57;2.35;;;2.60;99.90;;;;;;4896198;29;20049;-49
2022/04/18 00:09:46;;;;;;;2.42;1.73;;;2.60;99.90;;;;;;4890768;29;20032;-53
2022/04/18 00:12:13;;;;;;;4.60;2.00;;;2.60;99.90;;;;;;4895983;29;20049;-49
2022/04/18 00:14:40;;;;;;;5.55;2.33;;;2.50;99.90;;;;;;4896154;29;20078;-49
2022/04/18 00:17:09;;;;;;;9.05;2.50;;;2.50;99.90;;;;;;4896154;29;20052;-50
2022/04/18 00:19:39;;;;;;;4.97;2.28;;;2.50;99.90;;;;;;4895311;29;20062;-49
2022/04/18 00:22:06;;;;;;;4.85;2.30;;;2.50;99.90;;;;;;4895957;29;20080;-51
2022/04/18 00:24:33;;;;;;;4.93;2.15;;;2.40;99.90;;;;;;4895766;29;20052;-53
2022/04/18 00:27:03;;;;;;;3.80;1.88;;;2.40;99.90;;;;;;4887611;29;20495;-50
2022/04/18 00:29:31;;;;;;;5.38;3.00;;;2.30;99.90;;;;;;4894870;29;20123;-49
2022/04/18 00:31:57;;;;;;;3.35;2.17;;;2.10;99.90;;;;;;4894884;29;20052;-52
2022/04/18 00:34:25;;;;;;;4.72;2.45;;;1.80;99.90;;;;;;4897833;29;20040;-51
2022/04/18 00:36:51;;;;;;;8.30;2.42;;;1.70;99.90;;;;;;4893540;29;20412;-49
2022/04/18 00:39:20;;;;;;;4.72;2.50;;;1.70;99.90;;;;;;4898001;29;20153;-50
2022/04/18 00:41:47;;;;;;;3.47;2.22;;;1.80;99.90;;;;;;4881353;29;20097;-51
2022/04/18 00:44:14;;;;;;;5.75;2.45;;;1.80;99.90;;;;;;4879140;29;20407;-48
2022/04/18 00:46:41;;;;;;;4.78;3.00;;;1.80;99.90;;;;;;4880929;29;20104;-51
2022/04/18 00:49:08;;;;;;;3.70;2.53;;;1.90;99.90;;;;;;4898077;29;20410;-50
2022/04/18 00:51:35;;;;;;;3.00;2.45;;;1.90;99.90;;;;;;4897637;29;20127;-48
2022/04/18 00:54:02;;;;;;;3.35;1.88;;;2.00;99.90;;;;;;4880518;29;20077;-52
2022/04/18 00:56:29;;;;;;;4.65;2.45;;;2.10;99.90;;;;;;4881062;29;20044;-49
2022/04/18 00:58:56;;;;;;;4.53;2.28;;;1.90;99.90;;;;;;4897949;29;20048;-52
2022/04/18 01:01:23;;;;;;;3.58;2.00;;;2.10;99.90;;;;;;4897540;29;20044;-50
2022/04/18 01:03:53;;;;;;;7.00;2.20;;;2.10;99.90;;;;;;4880469;29;20048;-48
2022/04/18 01:06:20;;;;;;;3.83;2.33;;;2.10;99.90;;;;;;4897542;29;20566;-52
2022/04/18 01:08:49;;;;;;;3.08;2.13;;;2.00;99.90;;;;;;4897686;29;20041;-54
2022/04/18 01:11:16;;;;;;;;;;;2.00;99.90;;;;;;4881103;29;20055;-51
2022/04/18 01:14:02;;;;;;;2.80;2.10;;;2.00;99.90;;;;;;4894890;29;19929;-52
2022/04/18 01:16:39;;;;;;;1.70;1.33;;;2.00;99.90;;;;;;4880798;29;20049;-49
2022/04/18 01:19:19;;;;;;;7.55;2.22;;;2.00;99.90;;;;;;4880822;29;20502;-49
2022/04/18 01:22:00;;;;;;;4.85;2.25;;;2.00;99.90;;;;;;4879875;29;20048;-50
2022/04/18 01:30:20;;;;;;;3.63;2.25;;;1.90;99.90;;;;;;4897332;29;20049;-51
2022/04/18 01:32:47;;;;;;;4.53;2.50;;;1.80;99.90;;;;;;4881613;29;20049;-49
2022/04/18 01:35:14;;;;;;;4.80;2.40;;;1.70;99.90;;;;;;4881272;29;20143;-49
2022/04/18 01:37:41;;;;;;;3.33;2.55;;;1.70;99.90;;;;;;4898651;29;20171;-50
2022/04/18 01:40:12;;;;;;;2.85;2.10;;;1.70;99.90;;;;;;4880382;29;20091;-49
2022/04/18 01:42:39;;;;;;;3.20;2.22;;;1.70;99.90;;;;;;4881463;29;20454;-50
2022/04/18 01:45:07;;;;;;;4.00;2.67;;;1.70;99.90;;;;;;4897685;29;20088;-50
2022/04/18 01:47:33;;;;;;;2.78;1.98;;;1.70;99.90;;;;;;4881375;29;20416;-49
2022/04/18 01:50:00;;;;;;;3.00;1.63;;;1.60;99.90;;;;;;4880129;29;20053;-52
2022/04/18 01:52:28;;;;;;;3.38;2.20;;;1.70;99.90;;;;;;4881301;29;20036;-51
2022/04/18 01:54:56;;;;;;;;;;;1.70;99.90;;;;;;4881777;29;20060;-49
2022/04/18 01:57:23;;;;;;;4.43;2.25;;;1.70;99.90;;;;;;4878724;29;19930;-53
2022/04/18 01:59:49;;;;;;;4.15;2.35;;;1.70;99.90;;;;;;4875762;29;20084;-50
2022/04/18 02:02:17;;;;;;;4.53;2.10;;;1.70;99.90;;;;;;4898444;29;20417;-52
2022/04/18 02:04:44;;;;;;;;;;;1.70;99.90;;;;;;4881507;29;20064;-50
2022/04/18 02:07:12;;;;;;;4.00;2.22;;;1.60;99.90;;;;;;4878643;29;20337;-49
2022/04/18 02:09:45;;;;;;;4.05;2.17;;;1.60;99.90;;;;;;4880577;29;20388;-49
2022/04/18 02:12:12;;;;;;;3.45;2.25;;;1.60;99.90;;;;;;4880748;29;20052;-51
2022/04/18 02:14:54;;;;;;;3.95;2.42;;;1.60;99.90;;;;;;4876898;29;20140;-52
2022/04/18 02:17:23;;;;;;;4.45;1.92;;;1.60;99.90;;;;;;4880807;29;20051;-49
2022/04/18 02:19:50;;;;;;;5.38;2.65;;;1.60;99.90;;;;;;4880444;29;20079;-50
2022/04/18 02:22:17;;;;;;;4.45;2.42;;;1.60;99.90;;;;;;4880880;29;20139;-51
2022/04/18 02:24:43;;;;;;;4.25;2.55;;;1.60;99.90;;;;;;4879399;29;20049;-46
2022/04/18 02:27:10;;;;;;;4.20;2.05;;;1.60;99.90;;;;;;4904253;23;20060;-57
2022/04/18 02:29:38;;;;;;;3.42;2.08;;;1.60;99.90;;;;;;4884331;29;20075;-57
2022/04/18 02:34:52;;;;;;;3.33;2.45;;;1.50;99.90;;;;;;4895105;29;20059;-55
2022/04/18 02:37:19;;;;;;;4.18;2.42;;;1.50;99.90;;;;;;4880195;29;20052;-56
2022/04/18 02:39:46;;;;;;;2.75;1.67;;;1.50;99.90;;;;;;4895628;29;20052;-55
2022/04/18 02:42:13;;;;;;;6.72;3.65;;;1.50;99.90;;;;;;4895798;29;20053;-54
2022/04/18 02:44:45;;;;;;;5.55;3.25;;;1.40;99.90;;;;;;4879348;29;20045;-55
2022/04/18 02:47:14;;;;;;;8.82;4.32;;;1.50;99.90;;;;;;4895793;29;20052;-56
2022/04/18 02:49:41;;;;;;;7.03;4.57;;;1.40;99.90;;;;;;4895401;29;20044;-54
2022/04/18 02:52:10;;;;;;;7.72;4.55;;;1.50;99.90;;;;;;4895651;29;20072;-56
2022/04/18 02:54:36;;;;;;;7.65;4.72;;;1.50;99.90;;;;;;4879348;29;20048;-54
2022/04/18 02:57:04;;;;;;;8.50;4.85;;;1.50;99.90;;;;;;4894909;29;20052;-57
2022/04/18 02:59:31;;;;;;;;;;;1.40;99.90;;;;;;4895903;29;20052;-55
2022/04/18 03:01:57;;;;;;;6.03;3.35;;;1.40;99.90;;;;;;4879108;29;19923;-55
2022/04/18 03:04:24;;;;;;;4.97;2.75;;;1.30;99.90;;;;;;4895467;29;20100;-57
2022/04/18 03:06:51;;;;;;;6.00;3.92;;;1.30;99.90;;;;;;4896660;29;20055;-56
2022/04/18 03:09:19;;;;;;;6.30;3.90;;;1.30;99.90;;;;;;4894221;29;20137;-55
2022/04/18 03:11:45;;;;;;;8.05;4.10;;;1.20;99.90;;;;;;4896386;29;20036;-57
2022/04/18 03:14:12;;;;;;;6.25;2.47;;;1.10;99.90;;;;;;4880039;29;20048;-54
2022/04/18 03:16:41;;;;;;;8.77;4.10;;;1.10;99.90;;;;;;4879636;29;20097;-57
2022/04/18 03:19:08;;;;;;;;;;;1.10;99.90;;;;;;4894731;29;20044;-56
2022/04/18 03:21:45;;;;;;;5.65;3.40;;;1.10;99.90;;;;;;4895217;29;20014;-57
2022/04/18 03:24:11;;;;;;;7.30;4.13;;;1.00;99.90;;;;;;4895396;29;20075;-56
2022/04/18 03:26:45;;;;;;;10.02;4.05;;;1.10;99.90;;;;;;4879434;29;20092;-56
2022/04/18 03:29:17;;;;;;;5.85;3.80;;;1.10;99.90;;;;;;4894470;29;20053;-54
2022/04/18 03:31:44;;;;;;;;;;;1.10;99.90;;;;;;4896641;29;20044;-56
2022/04/18 03:34:13;;;;;;;5.10;3.45;;;1.00;99.90;;;;;;4879863;29;20299;-56
2022/04/18 03:42:11;;;;;;;8.90;4.57;;;1.00;99.90;;;;;;4879599;29;20045;-56
2022/04/18 03:44:43;;;;;;;6.22;4.50;;;0.90;99.90;;;;;;4893898;29;20506;-52
2022/04/18 03:47:11;;;;;;;8.77;4.82;;;0.90;99.90;;;;;;4894926;29;20040;-55
2022/04/18 03:49:39;;;;;;;7.18;4.70;;;0.90;99.90;;;;;;4894833;29;20041;-55
2022/04/18 03:52:07;;;;;;;13.13;6.85;;;0.80;99.90;;;;;;4878795;29;20051;-57
2022/04/18 03:54:34;;;;;;;7.32;4.57;;;0.80;99.90;;;;;;4889337;29;20040;-56
2022/04/18 03:57:03;;;;;;;7.90;4.72;;;0.70;99.90;;;;;;4894835;29;20052;-57
2022/04/18 03:59:52;;;;;;;7.80;4.78;;;0.70;99.90;;;;;;4895277;29;20059;-57
2022/04/18 04:02:21;;;;;;;10.90;5.25;;;0.70;99.90;;;;;;4894645;29;20052;-55
2022/04/18 04:04:52;;;;;;;11.82;5.43;;;0.70;99.90;;;;;;4879243;29;20053;-57
2022/04/18 04:07:19;;;;;;;9.18;5.07;;;0.70;99.90;;;;;;4896153;29;20044;-56
2022/04/18 04:09:53;;;;;;;10.15;5.32;;;0.70;99.90;;;;;;4897307;29;20592;-56
2022/04/18 04:12:25;;;;;;;9.15;4.65;;;0.70;99.90;;;;;;4898482;29;20051;-56
2022/04/18 04:15:09;;;;;;;8.95;4.95;;;0.70;99.90;;;;;;4898187;29;20044;-56
2022/04/18 04:17:41;;;;;;;8.45;5.20;;;0.70;99.90;;;;;;4898381;29;20067;-56
2022/04/18 04:20:19;;;;;;;6.32;3.75;;;0.70;99.90;;;;;;4897174;29;20060;-56
2022/04/18 04:22:49;;;;;;;9.35;4.88;;;0.70;99.90;;;;;;4882943;29;20049;-56
2022/04/18 04:25:38;;;;;;;11.40;5.78;;;0.70;99.90;;;;;;4897364;29;20084;-56
2022/04/18 04:28:11;;;;;;;11.80;5.97;;;0.60;99.90;;;;;;4897912;29;20052;-56
2022/04/18 04:30:38;;;;;;;7.60;5.03;;;0.60;99.90;;;;;;4895085;29;20047;-56
2022/04/18 04:33:05;;;;;;;8.50;4.65;;;0.70;99.90;;;;;;4897561;29;20585;-56
2022/04/18 04:35:33;;;;;;;9.65;5.38;;;0.70;99.90;;;;;;4882485;29;20565;-56
2022/04/18 04:38:03;;;;;;;9.82;5.22;;;0.70;99.90;;;;;;4898371;29;20117;-57
2022/04/18 04:40:57;;;;;;;8.00;4.10;;;0.60;99.90;;;;;;4897825;29;20140;-54
2022/04/18 04:43:36;;;;;;;10.93;4.40;;;0.60;99.90;;;;;;4897211;29;20044;-57
2022/04/18 04:46:04;;;;;;;8.52;4.93;;;0.50;99.90;;;;;;4897574;29;20092;-54
2022/04/18 04:48:39;;;;;;;7.97;4.82;;;0.60;99.90;;;;;;4897974;29;20052;-57
2022/04/18 04:51:13;;;;;;;9.63;4.93;;;0.70;99.90;;;;;;4897617;29;20072;-58
2022/04/18 04:53:39;;;;;;;7.55;4.32;;;0.70;99.90;;;;;;4896863;29;20451;-55
2022/04/18 04:56:08;;;;;;;8.63;5.05;;;0.80;99.90;;;;;;4897789;29;20080;-56
2022/04/18 04:58:37;;;;;;;8.13;5.07;;;0.80;99.90;;;;;;4897756;29;20059;-57
2022/04/18 05:01:09;;;;;;;9.38;5.20;;;0.90;99.90;;;;;;4894792;29;20056;-56
2022/04/18 05:03:54;;;;;;;9.85;5.03;;;0.90;99.90;;;;;;4897723;29;20053;-54
2022/04/18 05:06:22;;;;;;;7.85;4.97;;;1.00;99.90;;;;;;4898916;29;20045;-57
2022/04/18 05:08:49;;;;;;;;;;;1.10;99.90;;;;;;4899472;29;20065;-56
2022/04/18 05:11:16;;;;;;;10.38;5.30;;;1.10;99.90;;;;;;4880872;29;19934;-56
2022/04/18 05:13:47;;;;;;;8.27;5.20;;;1.10;99.90;;;;;;4881767;29;20045;-56
2022/04/18 05:16:17;;;;;;;8.55;5.18;;;1.20;99.90;;;;;;4897718;29;20059;-55
2022/04/18 05:19:07;;;;;;;8.93;5.38;;;1.20;99.90;;;;;;4879067;29;20063;-56
2022/04/18 05:21:34;;;;;;;8.80;4.78;;;1.30;99.90;;;;;;4896857;29;20076;-56
2022/04/18 05:24:10;;;;;;;9.88;5.93;;;1.30;99.90;;;;;;4881878;29;20053;-56
2022/04/18 05:26:38;;;;;;;10.93;6.63;;;1.40;99.90;;;;;;4897080;29;20049;-56
2022/04/18 05:29:05;;;;;;;9.07;3.97;;;1.40;99.90;;;;;;4897716;29;20067;-56
2022/04/18 05:31:32;;;;;;;;;;;1.40;99.90;;;;;;4881695;29;20139;-57
2022/04/18 05:34:00;;;;;;;9.25;5.22;;;1.50;99.90;;;;;;4881520;29;20395;-56
2022/04/18 05:36:33;;;;;;;10.32;5.95;;;1.60;99.90;;;;;;4896068;29;20072;-57
2022/04/18 05:39:02;;;;;;;10.50;5.30;;;1.60;99.90;;;;;;4896960;29;20104;-57
2022/04/18 05:41:38;;;;;;;7.38;4.63;;;1.60;99.90;;;;;;4896640;29;20056;-57
2022/04/18 05:44:05;;;;;;;7.95;5.63;;;1.70;99.90;;;;;;4897046;29;20044;-56
2022/04/18 05:46:44;;;;;;;8.07;5.22;;;1.80;99.90;;;;;;4877665;29;20044;-55
2022/04/18 05:49:11;;;;;;;7.70;5.30;;;1.80;99.90;;;;;;4896807;29;20040;-55
2022/04/18 05:51:38;;;;;;;6.50;4.25;;;1.90;99.90;;;;;;4896459;29;20088;-57
2022/04/18 05:54:06;;;;;;;16.38;6.72;;;2.00;99.90;;;;;;4880023;29;20427;-54
2022/04/18 05:56:56;;;;;;;12.45;6.00;;;1.90;99.90;;;;;;4890225;29;20582;-54
2022/04/18 05:59:37;;;;;;;12.57;6.45;;;1.90;99.90;;;;;;4896411;29;20100;-57
2022/04/18 06:02:29;;;;;;;13.25;7.30;;;1.90;99.90;;;;;;4894189;29;20139;-54
2022/04/18 06:05:04;;;;;;;12.38;6.18;;;2.00;99.90;;;;;;4896538;29;20059;-56
2022/04/18 06:07:48;;;;;;;8.77;5.53;;;2.10;99.90;;;;;;4894340;29;20060;-58
2022/04/18 06:10:40;;;;;;;10.60;5.75;;;2.10;99.90;;;;;;4869270;29;20079;-56
2022/04/18 06:13:39;;;;;;;14.23;6.10;;;2.20;99.90;;;;;;4876029;29;20048;-53
2022/04/18 06:16:07;;;;;;;10.95;6.38;;;2.20;99.90;;;;;;4879917;29;20059;-58
2022/04/18 06:18:34;;;;;;;10.18;5.95;;;2.40;99.90;;;;;;4896169;29;20080;-57
2022/04/18 06:21:06;;;;;;;10.38;5.93;;;2.50;99.90;;;;;;4895920;29;20044;-58
2022/04/18 06:23:34;;;;;;;8.95;5.50;;;2.70;99.90;;;;;;4895311;29;20053;-55
2022/04/18 06:26:24;;;;;;;10.40;6.25;;;2.90;99.90;;;;;;4896916;29;20052;-55
2022/04/18 06:28:52;;;;;;;14.10;5.53;;;3.00;99.90;;;;;;4896054;29;20049;-56
2022/04/18 06:31:19;;;;;;;9.73;5.68;;;3.20;99.90;;;;;;4880013;29;20044;-56
2022/04/18 06:33:58;;;;;;;8.43;5.47;;;3.40;99.90;;;;;;4895109;29;20045;-55
2022/04/18 06:36:26;;;;;;;9.07;5.10;;;3.60;99.90;;;;;;4895833;29;20143;-54
2022/04/18 06:39:11;;;;;;;8.73;5.38;;;3.70;99.90;;;;;;4897347;29;20528;-55
2022/04/18 06:41:39;;;;;;;7.93;5.00;;;3.90;99.90;;;;;;4895378;29;20076;-56
2022/04/18 06:44:06;;;;;;;6.88;4.90;;;3.90;99.90;;;;;;4894959;29;20086;-57
2022/04/18 06:46:49;;;;;;;6.60;4.80;;;3.80;99.90;;;;;;4895591;29;20409;-55
2022/04/18 06:49:30;;;;;;;7.55;5.45;;;3.90;99.90;;;;;;4895414;29;20048;-57
2022/04/18 06:52:16;;;;;;;8.13;5.00;;;4.10;99.90;;;;;;4895581;29;20198;-55
2022/04/18 06:55:02;;;;;;;7.60;4.68;;;4.20;99.90;;;;;;4897017;29;20649;-56
2022/04/18 06:57:29;;;;;;;9.75;4.55;;;4.30;99.90;;;;;;4895721;29;20056;-54
2022/04/18 06:59:57;;;;;;;7.85;4.10;;;4.30;99.90;;;;;;4894087;29;20079;-54
2022/04/18 07:02:26;;;;;;;7.20;4.53;;;4.40;99.90;;;;;;4879743;29;20052;-54
2022/04/18 07:04:54;;;;;;;5.38;3.85;;;4.50;99.90;;;;;;4895626;29;20063;-56
2022/04/18 07:07:24;;;;;;;8.27;4.10;;;4.70;99.90;;;;;;4879852;29;20044;-53
2022/04/18 07:09:51;;;;;;;5.93;3.45;;;4.80;99.90;;;;;;4895486;29;20128;-55
2022/04/18 07:12:24;;;;;;;4.65;3.17;;;5.00;99.90;;;;;;4895288;29;20048;-57
2022/04/18 07:14:54;;;;;;;5.15;3.42;;;5.20;99.90;;;;;;4895088;29;20526;-52
2022/04/18 07:17:21;;;;;;;5.82;3.28;;;5.50;99.90;;;;;;4895481;29;20048;-54
2022/04/18 07:19:48;;;;;;;5.13;3.25;;;5.60;99.90;;;;;;4865066;29;20112;-54
2022/04/18 07:22:19;;;;;;;3.85;2.95;;;5.70;99.90;;;;;;4876189;29;20045;-56
2022/04/18 07:24:47;;;;;;;7.43;3.90;;;5.70;99.90;;;;;;4878076;29;20096;-54
2022/04/18 07:27:19;;;;;;;5.10;3.33;;;5.80;99.90;;;;;;4879253;29;20136;-56
2022/04/18 07:29:54;;;;;;;6.25;3.45;;;6.00;99.90;;;;;;4894657;29;20470;-55
2022/04/18 07:32:22;;;;;;;4.82;3.47;;;6.10;99.90;;;;;;4895227;29;20049;-56
2022/04/18 07:34:53;;;;;;;7.30;4.90;;;6.20;99.90;;;;;;4891363;29;20045;-55
2022/04/18 07:37:32;;;;;;;6.43;3.63;;;6.30;99.90;;;;;;4879435;29;20049;-56
2022/04/18 07:39:59;;;;;;;6.18;3.58;;;6.40;99.90;;;;;;4894800;29;20053;-56
2022/04/18 07:42:26;;;;;;;5.60;3.47;;;6.50;99.90;;;;;;4898261;29;20545;-56
2022/04/18 07:44:53;;;;;;;4.60;3.45;;;6.70;99.90;;;;;;4901497;29;20505;-56
2022/04/18 07:47:20;;;;;;;3.83;3.10;;;6.90;99.90;;;;;;4901202;29;20053;-57
2022/04/18 07:49:47;;;;;;;6.82;3.28;;;6.80;99.90;;;;;;4900920;29;20445;-57
2022/04/18 07:52:14;;;;;;;7.57;3.47;;;6.90;99.90;;;;;;4900175;29;20052;-56
2022/04/18 07:54:55;;;;;;;6.38;3.50;;;6.90;99.90;;;;;;4901021;29;20143;-56
2022/04/18 07:57:22;;;;;;;5.03;3.65;;;7.00;99.90;;;;;;4898050;29;20120;-57
2022/04/18 07:59:55;;;;;;;4.97;3.85;;;7.10;99.90;;;;;;4895794;29;20139;-57
2022/04/18 08:02:23;;;;;;;7.70;4.47;;;7.20;99.90;;;;;;4885531;29;20422;-56
2022/04/18 08:05:04;;;;;;;4.80;2.97;;;7.20;99.90;;;;;;4885693;29;20052;-56
2022/04/18 08:07:41;;;;;;;7.20;3.33;;;7.20;99.90;;;;;;4901145;29;20109;-53
2022/04/18 08:10:09;;;;;;;4.10;3.05;;;7.30;99.90;;;;;;4883847;29;20072;-56
2022/04/18 08:12:39;;;;;;;4.43;2.63;;;7.50;99.90;;;;;;4900599;29;20586;-56
2022/04/18 08:15:24;;;;;;;6.60;3.30;;;7.70;99.90;;;;;;4894587;29;20176;-54
2022/04/18 08:17:51;;;;;;;5.78;3.30;;;7.80;99.90;;;;;;4899032;29;20075;-55
2022/04/18 08:20:33;;;;;;;6.78;3.53;;;8.00;99.90;;;;;;4899384;29;20048;-56
2022/04/18 08:22:59;;;;;;;6.43;2.90;;;8.20;99.90;;;;;;4884909;29;20048;-57
2022/04/18 08:25:45;;;;;;;5.85;3.30;;;8.40;99.90;;;;;;4916844;23;20050;-54
2022/04/18 08:28:55;;;;;;;4.47;3.50;;;8.50;99.90;;;;;;4901818;29;20056;-53
2022/04/18 08:31:23;;;;;;;6.97;3.50;;;8.70;99.90;;;;;;4899844;29;20055;-51
2022/04/18 08:34:12;;;;;;;3.60;2.95;;;8.90;99.90;;;;;;4913079;29;20050;-51
2022/04/18 08:36:39;;;;;;;4.40;3.20;;;9.00;99.90;;;;;;4898666;29;20087;-52
2022/04/18 08:39:08;;;;;;;4.13;2.85;;;8.90;99.90;;;;;;4884314;29;20044;-49
2022/04/18 08:42:05;;;;;;;3.70;3.03;;;8.90;99.90;;;;;;4890362;29;20131;-52
2022/04/18 08:44:39;;;;;;;3.15;2.38;;;8.90;99.90;;;;;;4893797;29;20148;-54
2022/04/18 08:47:06;;;;;;;;;;;9.10;99.90;;;;;;4900906;29;20048;-51
2022/04/18 08:55:11;;;;;;;6.78;2.45;;;9.50;99.90;;;;;;4890255;29;20052;-49
2022/04/18 08:57:39;;;;;;;4.43;2.42;;;9.70;99.90;;;;;;4878893;29;20624;-50
2022/04/18 09:00:09;;;;;;;3.75;2.35;;;9.90;99.80;;;;;;4886752;29;20132;-50
2022/04/18 09:02:41;;;;;;;3.30;2.45;;;9.80;99.90;;;;;;4880144;29;20409;-49
2022/04/18 09:05:38;;;;;;;3.70;2.85;;;10.00;99.60;;;;;;4885439;29;20457;-51
2022/04/18 09:08:10;;;;;;;6.68;3.00;;;10.20;99.90;;;;;;4878512;29;20414;-52
2022/04/18 09:10:39;;;;;;;4.95;2.80;;;10.40;99.90;;;;;;4880971;29;20068;-51
2022/04/18 09:13:10;;;;;;;5.28;3.33;;;10.50;99.90;;;;;;4881831;29;20117;-49
2022/04/18 09:15:48;;;;;;;7.68;3.20;;;10.60;99.90;;;;;;4897960;29;20040;-52
2022/04/18 09:18:22;;;;;;;4.78;2.80;;;10.70;99.90;;;;;;4881726;29;20072;-50
2022/04/18 09:20:53;;;;;;;10.40;3.50;;;10.70;99.90;;;;;;4880690;29;20135;-52
2022/04/18 09:23:26;;;;;;;5.07;3.30;;;10.80;99.80;;;;;;4881540;29;20501;-50
2022/04/18 09:26:10;;;;;;;6.53;2.90;;;11.00;98.20;;;;;;4881221;29;20044;-50
2022/04/18 09:28:40;;;;;;;3.08;2.38;;;11.10;97.50;;;;;;4880956;29;20054;-52
2022/04/18 09:31:10;;;;;;;3.60;2.40;;;11.10;97.50;;;;;;4881151;29;20045;-50
2022/04/18 09:33:37;;;;;;;3.53;2.50;;;11.10;97.80;;;;;;4881453;29;20132;-52
2022/04/18 09:36:18;;;;;;;4.38;2.60;;;11.20;98.50;;;;;;4880880;29;20454;-53
2022/04/18 09:38:55;;;;;;;4.82;3.15;;;11.30;99.90;;;;;;4881183;29;20056;-50
2022/04/18 09:41:31;;;;;;;6.68;3.22;;;11.40;98.30;;;;;;4898274;29;20092;-51
2022/04/18 09:44:28;;;;;;;6.57;3.05;;;11.30;98.90;;;;;;4897015;29;20056;-49
2022/04/18 09:46:57;;;;;;;4.40;3.20;;;11.40;98.90;;;;;;4892465;29;20052;-50
2022/04/18 09:49:38;;;;;;;5.90;3.85;;;11.50;99.90;;;;;;4876995;29;20045;-52
2022/04/18 09:52:11;;;;;;;4.20;3.05;;;11.50;99.20;;;;;;4894093;29;20043;-53
2022/04/18 09:54:53;;;;;;;5.85;3.25;;;11.50;98.10;;;;;;4879227;29;20041;-54
2022/04/18 09:57:28;;;;;;;4.47;3.20;;;11.40;99.10;;;;;;4895177;29;20060;-50
2022/04/18 09:59:57;;;;;;;4.55;2.67;;;11.40;97.70;;;;;;4878572;29;20055;-52
2022/04/18 10:02:25;;;;;;;4.32;2.10;;;11.40;96.00;;;;;;4894035;29;20041;-52
2022/04/18 10:04:52;;;;;;;4.13;2.83;;;11.40;96.50;;;;;;4896304;29;20055;-52
2022/04/18 10:07:19;;;;;;;;;;;11.40;96.30;;;;;;4887888;29;20521;-53
2022/04/18 10:09:46;;;;;;;5.85;2.58;;;11.50;96.00;;;;;;4878567;29;19924;-51
2022/04/18 10:12:13;;;;;;;2.78;2.47;;;11.50;96.30;;;;;;4878885;29;20045;-52
2022/04/18 10:14:41;;;;;;;;;;;11.50;96.40;;;;;;4891785;29;20044;-50
2022/04/18 10:17:10;;;;;;;7.05;2.47;;;11.50;95.70;;;;;;4896306;29;19923;-53
2022/04/18 10:19:36;;;;;;;5.60;2.17;;;11.60;94.70;;;;;;4889736;29;20048;-51
2022/04/18 10:22:15;;;;;;;5.15;2.90;;;11.70;95.60;;;;;;4897778;29;20048;-54
2022/04/18 10:25:05;;;;;;;2.92;2.30;;;11.80;95.90;;;;;;4916147;29;20036;-52
2022/04/18 10:27:52;;;;;;;3.08;2.22;;;11.80;95.50;;;;;;4900936;29;20457;-53
2022/04/18 10:30:19;;;;;;;5.45;2.25;;;11.80;94.80;;;;;;4913179;29;20047;-50
2022/04/18 10:32:47;;;;;;;2.47;2.03;;;11.90;93.80;;;;;;4897032;29;20052;-49
2022/04/18 10:35:14;;;;;;;3.70;2.30;;;11.90;94.70;;;;;;4897135;29;20123;-51
2022/04/18 10:37:42;;;;;;;4.15;2.17;;;12.00;94.40;;;;;;4897181;29;20049;-51
2022/04/18 10:40:10;;;;;;;7.50;2.58;;;12.10;93.40;;;;;;4896211;29;20049;-50
2022/04/18 10:42:40;;;;;;;2.28;1.98;;;12.20;93.30;;;;;;4897047;29;20458;-49
2022/04/18 10:45:12;;;;;;;3.28;1.73;;;12.30;92.00;;;;;;4897019;29;20131;-50
2022/04/18 10:48:08;;;;;;;3.38;2.05;;;12.20;91.80;;;;;;4896184;29;20044;-52
2022/04/18 10:50:47;;;;;;;3.38;2.10;;;12.20;90.40;;;;;;4889809;29;20413;-50
2022/04/18 10:53:34;;;;;;;4.00;2.03;;;12.20;91.40;;;;;;4896016;29;20059;-53
2022/04/18 10:56:01;;;;;;;2.63;1.80;;;12.20;91.90;;;;;;4895012;29;20041;-52
2022/04/18 10:58:36;;;;;;;5.53;2.22;;;12.30;91.00;;;;;;4894621;29;20047;-54
2022/04/18 11:01:07;;;;;;;4.57;2.22;;;12.30;90.60;;;;;;4894960;29;20514;-51
2022/04/18 11:03:46;;;;;;;2.40;1.80;;;12.30;90.60;;;;;;4894518;29;20036;-51
2022/04/18 11:06:16;;;;;;;5.38;2.10;;;12.40;90.20;;;;;;4895100;29;20498;-54
2022/04/18 11:09:01;;;;;;;4.72;2.08;;;12.50;90.00;;;;;;4895229;29;20045;-50
2022/04/18 11:11:52;;;;;;;4.55;1.65;;;12.50;88.50;;;;;;4894677;29;20112;-54
2022/04/18 11:14:46;;;;;;;3.67;1.80;;;12.50;86.60;;;;;;4894832;29;20048;-50
2022/04/18 11:17:30;;;;;;;2.10;1.90;;;12.60;85.70;;;;;;4881038;29;20052;-53
2022/04/18 11:20:17;;;;;;;3.85;2.03;;;12.60;88.70;;;;;;4895457;29;20080;-50
2022/04/18 11:23:13;;;;;;;2.28;1.40;;;12.60;82.50;;;;;;4896063;29;20617;-51
2022/04/18 11:25:50;;;;;;;6.28;1.58;;;12.70;83.80;;;;;;4896327;29;20052;-52
2022/04/18 11:28:18;;;;;;;6.40;2.07;;;12.90;82.90;;;;;;4895259;29;20064;-51
2022/04/18 11:30:44;;;;;;;3.63;1.83;;;12.90;86.10;;;;;;4894200;29;20341;-52
2022/04/18 11:33:11;;;;;;;3.13;1.65;;;13.10;82.70;;;;;;4894932;29;20059;-54
2022/04/18 11:35:38;;;;;;;3.75;1.60;;;13.20;84.10;;;;;;4895025;29;20577;-52
2022/04/18 11:38:09;;;;;;;1.98;1.38;;;13.20;83.10;;;;;;4894646;29;20441;-51
2022/04/18 11:40:37;;;;;;;2.95;1.67;;;13.10;80.70;;;;;;4891561;29;20398;-52
2022/04/18 11:43:16;;;;;;;3.45;1.63;;;13.00;85.80;;;;;;4877797;29;20041;-51
2022/04/18 11:45:43;;;;;;;2.58;1.63;;;13.10;83.00;;;;;;4877253;29;20041;-51
2022/04/18 11:48:13;;;;;;;5.20;1.88;;;13.10;82.10;;;;;;4891183;29;20040;-54
2022/04/18 11:50:43;;;;;;;2.63;1.60;;;13.10;78.50;;;;;;4895699;29;20117;-54
2022/04/18 11:53:16;;;;;;;2.15;1.58;;;13.10;83.60;;;;;;4896106;29;20069;-53
2022/04/18 11:55:49;;;;;;;4.15;1.95;;;13.30;81.80;;;;;;4895539;29;20099;-49
2022/04/18 11:58:20;;;;;;;2.67;1.67;;;13.40;81.40;;;;;;4895901;29;20104;-53
2022/04/18 12:09:09;;;;;;;4.78;1.90;;;13.20;79.50;;;;;;4895203;29;20044;-52
2022/04/18 12:11:36;;;;;;;4.05;1.45;;;13.20;76.00;;;;;;4894987;29;20060;-50
2022/04/18 12:14:04;;;;;;;2.60;1.48;;;13.20;78.20;;;;;;4893677;29;20097;-54
2022/04/18 12:16:34;;;;;;;3.60;1.40;;;13.30;76.40;;;;;;4895729;29;20044;-50
2022/04/18 12:19:02;;;;;;;1.95;1.30;;;13.30;77.30;;;;;;4895861;29;20044;-52
2022/04/18 12:21:29;;;;;;;3.25;1.33;;;13.30;80.20;;;;;;4895329;29;20045;-52
2022/04/18 12:23:57;;;;;;;2.13;1.50;;;13.40;75.20;;;;;;4894791;29;20037;-54
2022/04/18 12:26:26;;;;;;;4.07;1.92;;;13.40;75.90;;;;;;4894196;29;20037;-53
2022/04/18 12:29:06;;;;;;;1.90;1.42;;;13.50;75.70;;;;;;4896945;29;20068;-52
2022/04/18 12:31:32;;;;;;;2.88;1.67;;;13.50;78.70;;;;;;4897635;29;20044;-54
2022/04/18 12:33:59;;;;;;;4.45;1.92;;;13.50;79.50;;;;;;4897262;29;20131;-51
2022/04/18 12:36:29;;;;;;;3.55;1.80;;;13.70;74.10;;;;;;4898545;29;20040;-53
2022/04/18 12:38:56;;;;;;;2.53;1.38;;;13.80;77.00;;;;;;4897945;29;20041;-51
2022/04/18 12:41:30;;;;;;;3.22;1.35;;;13.80;77.10;;;;;;4897121;29;20501;-54
2022/04/18 12:43:57;;;;;;;2.05;1.42;;;13.80;75.00;;;;;;4898470;29;20545;-54
2022/04/18 12:46:28;;;;;;;2.15;1.58;;;13.90;76.60;;;;;;4898589;29;20494;-54
2022/04/18 12:48:55;;;;;;;2.25;1.50;;;13.90;75.50;;;;;;4898395;29;20036;-54
2022/04/18 12:51:39;;;;;;;4.05;2.20;;;13.80;75.00;;;;;;4897334;29;20048;-50
2022/04/18 12:54:24;;;;;;;3.90;1.60;;;13.80;74.20;;;;;;4880453;29;20052;-51
2022/04/18 12:56:51;;;;;;;3.60;1.65;;;13.80;76.90;;;;;;4896683;29;20049;-51
2022/04/18 12:59:28;;;;;;;2.13;1.40;;;13.80;72.40;;;;;;4897372;29;20056;-54
2022/04/18 13:02:09;;;;;;;3.50;1.30;;;13.70;70.60;;;;;;4897655;29;20048;-52
2022/04/18 13:04:37;;;;;;;2.22;1.40;;;13.70;75.00;;;;;;4896063;29;20056;-55
2022/04/18 13:07:08;;;;;;;1.73;1.30;;;13.80;74.10;;;;;;4897273;29;20036;-51
2022/04/18 13:09:35;;;;;;;2.47;1.60;;;13.90;77.20;;;;;;4895136;29;20052;-53
2022/04/18 13:12:04;;;;;;;3.15;1.30;;;14.00;72.40;;;;;;4898051;29;20128;-52
2022/04/18 13:14:32;;;;;;;2.47;1.23;;;13.90;73.20;;;;;;4897879;29;20374;-53
2022/04/18 13:17:08;;;;;;;;;;;13.80;72.40;;;;;;4898342;29;20064;-50
2022/04/18 13:19:37;;;;;;;2.30;1.20;;;13.90;73.60;;;;;;4892755;29;20448;-51
2022/04/18 13:22:04;;;;;;;3.63;1.30;;;13.90;74.10;;;;;;4898581;29;20056;-54
2022/04/18 13:24:31;;;;;;;3.60;1.40;;;13.80;68.60;;;;;;4897666;29;20064;-49
2022/04/18 13:26:58;;;;;;;3.15;1.63;;;13.80;72.10;;;;;;4881495;29;20466;-52
2022/04/18 13:29:25;;;;;;;3.75;1.27;;;13.80;67.90;;;;;;4897665;29;20041;-52
2022/04/18 13:31:51;;;;;;;3.53;1.20;;;13.70;70.90;;;;;;4898115;29;20045;-51
2022/04/18 13:34:18;;;;;;;2.40;1.17;;;13.90;69.00;;;;;;4881983;29;20405;-49
2022/04/18 13:36:45;;;;;;;4.57;1.33;;;13.90;67.80;;;;;;4897901;29;20041;-52
2022/04/18 13:39:13;;;;;;;2.70;1.10;;;13.80;66.20;;;;;;4897828;29;20048;-51
2022/04/18 13:41:41;;;;;;;3.13;1.10;;;14.00;65.30;;;;;;4897202;29;20041;-52
2022/04/18 13:44:09;;;;;;;2.70;1.23;;;14.00;67.90;;;;;;4897082;29;20049;-49
2022/04/18 13:46:38;;;;;;;2.03;1.25;;;14.10;66.10;;;;;;4897687;29;20118;-50
2022/04/18 13:49:06;;;;;;;2.70;1.10;;;14.10;65.50;;;;;;4898158;29;20044;-50